createdAt,value
2019-05-07T00:01:55.157Z,8.45
2019-05-07T00:04:26.206Z,7.47
2019-05-07T00:06:57.751Z,8.23
2019-05-07T00:09:29.306Z,7.65
2019-05-07T00:12:04.703Z,8.00
2019-05-07T00:14:34.576Z,7.15
2019-05-07T00:17:07.187Z,6.55
2019-05-07T00:19:38.924Z,5.58
2019-05-07T00:22:12.396Z,5.42
2019-05-07T00:24:43.188Z,5.70
2019-05-07T00:27:14.456Z,5.28
2019-05-07T00:29:45.765Z,4.80
2019-05-07T00:32:17.428Z,5.30
2019-05-07T00:34:54.257Z,4.28
2019-05-07T00:37:35.425Z,4.22
2019-05-07T00:40:28.943Z,4.20
2019-05-07T00:43:13.398Z,4.53
2019-05-07T00:45:52.922Z,3.87
2019-05-07T00:48:24.471Z,3.90
2019-05-07T00:51:14.923Z,4.30
2019-05-07T00:53:46.580Z,4.20
2019-05-07T00:56:18.257Z,4.00
2019-05-07T00:58:49.874Z,4.10
2019-05-07T01:01:22.681Z,4.15
2019-05-07T01:03:54.558Z,4.03
2019-05-07T01:06:26.632Z,4.05
2019-05-07T01:08:59.139Z,3.52
2019-05-07T01:11:30.773Z,3.47
2019-05-07T01:14:02.828Z,3.45
2019-05-07T01:16:34.669Z,3.30
2019-05-07T01:19:06.483Z,3.25
2019-05-07T01:21:37.983Z,3.42
2019-05-07T01:24:09.531Z,3.30
2019-05-07T01:26:42.568Z,3.67
2019-05-07T01:29:14.373Z,3.42
2019-05-07T01:31:54.763Z,3.42
2019-05-07T01:34:44.924Z,3.05
2019-05-07T01:37:16.586Z,3.77
2019-05-07T01:39:47.941Z,3.15
2019-05-07T01:42:19.372Z,3.27
2019-05-07T01:44:52.843Z,3.60
2019-05-07T01:47:24.258Z,3.27
2019-05-07T01:49:55.925Z,3.50
2019-05-07T01:52:27.548Z,3.95
2019-05-07T01:54:59.257Z,3.50
2019-05-07T01:57:32.587Z,3.87
2019-05-07T02:00:05.297Z,3.77
2019-05-07T02:02:58.699Z,3.30
2019-05-07T02:05:39.190Z,3.95
2019-05-07T02:08:14.189Z,3.67
2019-05-07T02:11:04.667Z,3.40
2019-05-07T02:13:36.272Z,3.75
2019-05-07T02:16:07.745Z,3.47
2019-05-07T02:18:39.011Z,3.45
2019-05-07T02:21:12.730Z,3.80
2019-05-07T02:23:43.481Z,3.80
2019-05-07T02:26:14.684Z,3.58
2019-05-07T02:28:45.966Z,3.90
2019-05-07T02:31:17.238Z,3.65
2019-05-07T02:33:49.027Z,3.60
2019-05-07T02:36:23.581Z,3.60
2019-05-07T02:39:03.957Z,3.58
2019-05-07T02:41:37.225Z,3.80
2019-05-07T02:44:08.595Z,3.85
2019-05-07T02:47:03.739Z,3.80
2019-05-07T02:49:56.355Z,3.27
2019-05-07T02:52:49.448Z,3.35
2019-05-07T02:55:37.360Z,3.30
2019-05-07T02:58:08.945Z,2.50
2019-05-07T03:00:43.091Z,3.05
2019-05-07T03:03:13.977Z,2.92
2019-05-07T03:05:46.607Z,2.77
2019-05-07T03:08:18.003Z,2.50
2019-05-07T03:10:52.496Z,2.40
2019-05-07T03:13:23.933Z,2.70
2019-05-07T03:15:55.582Z,2.33
2019-05-07T03:18:27.135Z,2.80
2019-05-07T03:21:18.307Z,2.50
2019-05-07T03:24:14.026Z,2.42
2019-05-07T03:26:46.109Z,2.77
2019-05-07T03:29:23.644Z,3.05
2019-05-07T03:32:15.785Z,2.40
2019-05-07T03:34:58.202Z,2.58
2019-05-07T03:37:35.757Z,2.35
2019-05-07T03:40:04.219Z,2.22
2019-05-07T03:42:36.223Z,2.10
2019-05-07T03:45:17.587Z,2.17
2019-05-07T03:47:54.312Z,2.05
2019-05-07T03:50:25.763Z,2.33
2019-05-07T03:52:57.172Z,1.75
2019-05-07T03:55:28.942Z,2.15
2019-05-07T03:58:02.911Z,2.00
2019-05-07T04:00:33.580Z,2.40
2019-05-07T04:03:05.201Z,2.33
2019-05-07T04:05:36.871Z,2.10
2019-05-07T04:08:08.577Z,2.20
2019-05-07T04:10:39.780Z,1.87
2019-05-07T04:13:13.584Z,1.92
2019-05-07T04:15:45.419Z,1.92
2019-05-07T04:18:17.422Z,1.72
2019-05-07T04:20:49.155Z,2.12
2019-05-07T04:23:23.300Z,1.65
2019-05-07T04:26:19.058Z,2.00
2019-05-07T04:29:04.751Z,2.08
2019-05-07T04:31:38.460Z,2.00
2019-05-07T04:34:15.658Z,2.50
2019-05-07T04:36:49.018Z,3.08
2019-05-07T04:39:23.193Z,3.42
2019-05-07T04:41:53.784Z,2.90
2019-05-07T04:44:25.399Z,2.55
2019-05-07T04:46:57.018Z,2.27
2019-05-07T04:49:28.472Z,2.30
2019-05-07T04:52:11.338Z,2.35
2019-05-07T04:54:43.687Z,2.35
2019-05-07T04:57:26.875Z,2.20
2019-05-07T04:59:58.950Z,2.35
2019-05-07T05:02:46.983Z,2.20
2019-05-07T05:05:19.707Z,2.55
2019-05-07T05:07:53.359Z,2.58
2019-05-07T05:10:24.406Z,2.70
2019-05-07T05:12:56.032Z,2.42
2019-05-07T05:15:27.380Z,2.00
2019-05-07T05:17:58.954Z,2.40
2019-05-07T05:20:45.454Z,2.22
2019-05-07T05:23:34.497Z,2.52
2019-05-07T05:26:06.345Z,2.27
2019-05-07T05:28:37.581Z,2.40
2019-05-07T05:31:08.784Z,2.70
2019-05-07T05:33:41.924Z,2.40
2019-05-07T05:36:13.775Z,3.27
2019-05-07T05:38:45.464Z,2.25
2019-05-07T05:41:17.087Z,1.80
2019-05-07T05:44:11.877Z,1.90
2019-05-07T05:46:43.453Z,2.00
2019-05-07T05:49:14.721Z,1.98
2019-05-07T05:52:04.850Z,2.05
2019-05-07T05:54:39.943Z,1.80
2019-05-07T05:57:32.693Z,2.00
2019-05-07T06:00:25.940Z,1.72
2019-05-07T06:03:28.312Z,1.30
2019-05-07T06:06:16.457Z,2.10
2019-05-07T06:09:01.792Z,1.20
2019-05-07T06:11:53.457Z,4.85
2019-05-07T06:14:46.838Z,1.50
2019-05-07T06:17:52.637Z,1.30
2019-05-07T06:20:42.861Z,1.30
2019-05-07T06:23:35.357Z,3.25
2019-05-07T06:26:06.967Z,1.65
2019-05-07T06:28:38.229Z,1.30
2019-05-07T06:31:09.796Z,1.50
2019-05-07T06:33:42.952Z,1.30
2019-05-07T06:36:14.867Z,1.35
2019-05-07T06:38:55.143Z,1.35
2019-05-07T06:41:43.842Z,0.90
2019-05-07T06:44:19.505Z,1.37
2019-05-07T06:46:52.608Z,1.47
2019-05-07T06:49:24.036Z,1.50
2019-05-07T06:51:55.216Z,1.35
2019-05-07T06:54:26.500Z,1.32
2019-05-07T06:56:57.716Z,1.20
2019-05-07T06:59:37.548Z,1.20
2019-05-07T07:02:36.936Z,1.40
2019-05-07T07:05:17.373Z,1.37
2019-05-07T07:07:53.557Z,1.20
2019-05-07T07:10:51.951Z,1.35
2019-05-07T07:13:23.978Z,1.45
2019-05-07T07:15:55.561Z,1.32
2019-05-07T07:18:27.005Z,1.27
2019-05-07T07:20:58.353Z,1.30
2019-05-07T07:23:32.158Z,1.50
2019-05-07T07:26:03.405Z,1.55
2019-05-07T07:28:34.915Z,1.20
2019-05-07T07:31:31.856Z,1.00
2019-05-07T07:34:05.485Z,1.25
2019-05-07T07:36:43.160Z,1.00
2019-05-07T07:39:14.372Z,1.20
2019-05-07T07:41:52.189Z,1.25
2019-05-07T07:44:23.393Z,1.27
2019-05-07T07:46:54.716Z,1.35
2019-05-07T07:49:26.223Z,1.70
2019-05-07T07:51:57.989Z,1.50
2019-05-07T07:54:29.227Z,1.82
2019-05-07T07:57:18.245Z,1.82
2019-05-07T07:59:58.255Z,1.50
2019-05-07T08:02:52.916Z,1.50
2019-05-07T08:05:24.374Z,1.65
2019-05-07T08:07:55.772Z,1.65
2019-05-07T08:10:27.170Z,1.92
2019-05-07T08:12:58.366Z,1.98
2019-05-07T08:15:29.934Z,1.67
2019-05-07T08:18:02.887Z,1.70
2019-05-07T08:20:34.685Z,1.85
2019-05-07T08:23:06.556Z,1.87
2019-05-07T08:25:52.489Z,1.90
2019-05-07T08:28:23.537Z,2.12
2019-05-07T08:31:02.992Z,5.67
2019-05-07T08:33:38.796Z,1.90
2019-05-07T08:36:14.678Z,2.22
2019-05-07T08:38:53.038Z,1.80
2019-05-07T08:41:26.411Z,1.90
2019-05-07T08:44:11.754Z,2.00
2019-05-07T08:46:53.739Z,1.70
2019-05-07T08:49:36.197Z,1.95
2019-05-07T08:52:03.440Z,7.70
2019-05-07T08:54:35.468Z,9.35
2019-05-07T08:57:07.089Z,1.90
2019-05-07T08:59:42.454Z,2.15
2019-05-07T09:02:14.752Z,2.25
2019-05-07T09:04:46.241Z,2.52
2019-05-07T09:07:17.722Z,2.50
2019-05-07T09:09:49.163Z,2.17
2019-05-07T09:12:22.740Z,2.30
2019-05-07T09:14:53.794Z,2.17
2019-05-07T09:17:25.098Z,2.27
2019-05-07T09:19:56.561Z,2.20
2019-05-07T09:22:27.992Z,3.90
2019-05-07T09:24:59.425Z,37.90
2019-05-07T09:27:49.486Z,2.72
2019-05-07T09:30:38.704Z,2.72
2019-05-07T09:33:28.843Z,2.90
2019-05-07T09:36:02.159Z,3.00
2019-05-07T09:38:33.214Z,2.92
2019-05-07T09:41:04.630Z,3.45
2019-05-07T09:43:36.316Z,3.65
2019-05-07T09:46:08.024Z,3.58
2019-05-07T09:48:39.364Z,3.85
2019-05-07T09:51:12.270Z,3.47
2019-05-07T09:53:43.788Z,3.58
2019-05-07T09:56:15.349Z,5.55
2019-05-07T09:58:46.981Z,7.05
2019-05-07T10:01:18.680Z,4.60
2019-05-07T10:03:51.857Z,4.10
2019-05-07T10:06:23.430Z,4.72
2019-05-07T10:08:55.079Z,4.58
2019-05-07T10:11:37.535Z,4.50
2019-05-07T10:14:12.436Z,5.00
2019-05-07T10:16:52.313Z,4.40
2019-05-07T10:19:23.692Z,4.40
2019-05-07T10:24:41.883Z,4.83
2019-05-07T10:27:13.737Z,4.97
2019-05-07T10:29:52.989Z,4.95
2019-05-07T10:32:24.637Z,5.47
2019-05-07T10:34:56.498Z,5.12
2019-05-07T10:37:28.080Z,5.50
2019-05-07T10:40:05.014Z,5.30
2019-05-07T10:42:36.752Z,5.03
2019-05-07T10:45:45.218Z,5.33
2019-05-07T10:48:26.025Z,5.40
2019-05-07T10:50:58.330Z,5.70
2019-05-07T10:53:31.884Z,5.95
2019-05-07T10:56:02.931Z,5.62
2019-05-07T10:58:34.344Z,5.65
2019-05-07T11:01:07.501Z,6.03
2019-05-07T11:03:39.409Z,5.28
2019-05-07T11:06:11.961Z,5.28
2019-05-07T11:08:43.579Z,5.62
2019-05-07T11:11:15.097Z,5.70
2019-05-07T11:13:46.347Z,6.58
2019-05-07T11:16:22.119Z,6.62
2019-05-07T11:18:53.720Z,8.00
2019-05-07T11:21:33.266Z,8.23
2019-05-07T11:24:04.740Z,8.60
2019-05-07T11:26:36.095Z,9.53
2019-05-07T11:29:07.653Z,8.90
2019-05-07T11:31:39.259Z,9.78
2019-05-07T11:34:11.966Z,9.70
2019-05-07T11:36:44.252Z,9.68
2019-05-07T11:39:15.722Z,9.63
2019-05-07T11:42:09.008Z,9.85
2019-05-07T11:44:42.319Z,10.00
2019-05-07T11:47:25.790Z,9.75
2019-05-07T11:50:14.907Z,10.48
2019-05-07T11:52:53.100Z,10.25
2019-05-07T11:55:24.926Z,9.95
2019-05-07T11:57:56.679Z,10.85
2019-05-07T12:00:39.675Z,11.03
2019-05-07T12:03:11.053Z,11.05
2019-05-07T12:05:42.537Z,11.43
2019-05-07T12:08:14.086Z,11.53
2019-05-07T12:10:45.728Z,11.33
2019-05-07T12:13:17.165Z,11.08
2019-05-07T12:15:48.691Z,11.68
2019-05-07T12:18:22.497Z,10.88
2019-05-07T12:20:54.158Z,10.45
2019-05-07T12:23:25.751Z,10.68
2019-05-07T12:25:57.347Z,11.63
2019-05-07T12:28:28.995Z,10.55
2019-05-07T12:31:20.011Z,11.08
2019-05-07T12:34:02.544Z,11.28
2019-05-07T12:36:33.994Z,11.50
2019-05-07T12:39:07.967Z,11.05
2019-05-07T12:41:41.858Z,10.28
2019-05-07T12:44:13.952Z,11.33
2019-05-07T12:46:45.512Z,11.60
2019-05-07T12:49:17.213Z,10.63
2019-05-07T12:52:07.643Z,11.33
2019-05-07T12:54:56.700Z,13.25
2019-05-07T12:57:28.079Z,12.10
2019-05-07T13:00:18.555Z,11.55
2019-05-07T13:03:08.943Z,12.25
2019-05-07T13:05:41.761Z,11.28
2019-05-07T13:08:13.607Z,12.63
2019-05-07T13:10:45.272Z,11.75
2019-05-07T13:13:17.161Z,12.85
2019-05-07T13:15:48.557Z,12.33
2019-05-07T13:18:22.504Z,14.73
2019-05-07T13:20:53.616Z,13.98
2019-05-07T13:23:25.332Z,14.43
2019-05-07T13:25:57.267Z,13.70
2019-05-07T13:28:28.722Z,14.90
2019-05-07T13:31:02.329Z,13.95
2019-05-07T13:33:36.182Z,13.50
2019-05-07T13:36:07.991Z,13.98
2019-05-07T13:39:04.817Z,13.95
2019-05-07T13:41:56.766Z,14.28
2019-05-07T13:44:53.344Z,13.90
2019-05-07T13:47:27.006Z,12.82
2019-05-07T13:49:59.040Z,14.90
2019-05-07T13:52:32.748Z,14.58
2019-05-07T13:55:03.695Z,15.08
2019-05-07T13:57:35.719Z,15.23
2019-05-07T14:00:12.811Z,15.48
2019-05-07T14:02:44.435Z,15.63
2019-05-07T14:05:17.092Z,14.33
2019-05-07T14:07:48.871Z,14.33
2019-05-07T14:10:20.460Z,14.07
2019-05-07T14:12:52.454Z,14.58
2019-05-07T14:15:24.384Z,14.75
2019-05-07T14:17:55.780Z,15.32
2019-05-07T14:20:27.504Z,13.65
2019-05-07T14:22:59.139Z,15.72
2019-05-07T14:25:32.440Z,14.75
2019-05-07T14:28:04.272Z,14.78
2019-05-07T14:30:35.794Z,14.05
2019-05-07T14:33:14.306Z,15.10
2019-05-07T14:35:58.345Z,14.93
2019-05-07T14:38:42.693Z,14.58
2019-05-07T14:41:14.603Z,14.73
2019-05-07T14:44:07.857Z,14.58
2019-05-07T14:46:45.590Z,15.80
2019-05-07T14:49:13.047Z,15.13
2019-05-07T14:51:44.866Z,15.03
2019-05-07T14:54:18.275Z,16.73
2019-05-07T14:56:51.686Z,15.38
2019-05-07T14:59:22.567Z,15.63
2019-05-07T15:01:54.254Z,15.43
2019-05-07T15:04:25.927Z,15.80
2019-05-07T15:06:57.515Z,15.13
2019-05-07T15:09:29.433Z,17.20
2019-05-07T15:12:02.197Z,17.67
2019-05-07T15:14:33.946Z,18.37
2019-05-07T15:17:43.591Z,16.32
2019-05-07T15:20:15.511Z,17.37
2019-05-07T15:22:56.150Z,17.62
2019-05-07T15:25:28.988Z,18.40
2019-05-07T15:28:01.821Z,18.80
2019-05-07T15:30:44.915Z,16.87
2019-05-07T15:33:16.354Z,16.37
2019-05-07T15:35:47.974Z,20.48
2019-05-07T15:38:21.599Z,17.87
2019-05-07T15:40:52.918Z,17.62
2019-05-07T15:43:24.671Z,18.00
2019-05-07T15:45:56.443Z,17.48
2019-05-07T15:48:28.036Z,18.48
2019-05-07T15:50:59.783Z,17.90
2019-05-07T15:53:45.673Z,18.87
2019-05-07T15:56:18.212Z,18.25
2019-05-07T15:58:51.619Z,18.23
2019-05-07T16:01:23.286Z,17.05
2019-05-07T16:03:55.254Z,17.77
2019-05-07T16:06:26.916Z,18.80
2019-05-07T16:09:02.448Z,17.65
2019-05-07T16:11:35.632Z,16.70
2019-05-07T16:14:14.484Z,17.40
2019-05-07T16:16:47.111Z,17.77
2019-05-07T16:19:23.589Z,17.32
2019-05-07T16:21:55.828Z,17.82
2019-05-07T16:24:27.465Z,18.35
2019-05-07T16:26:59.115Z,17.00
2019-05-07T16:29:33.659Z,16.70
2019-05-07T16:32:03.829Z,18.55
2019-05-07T16:34:35.076Z,18.12
2019-05-07T16:37:07.591Z,17.75
2019-05-07T16:39:39.391Z,17.77
2019-05-07T16:42:10.797Z,17.77
2019-05-07T16:44:42.055Z,18.45
2019-05-07T16:47:13.812Z,18.17
2019-05-07T16:49:45.549Z,19.48
2019-05-07T16:52:16.986Z,18.27
2019-05-07T16:54:48.380Z,18.32
2019-05-07T16:57:44.716Z,19.95
2019-05-07T17:00:24.523Z,19.92
2019-05-07T17:02:57.907Z,18.62
2019-05-07T17:05:29.512Z,17.73
2019-05-07T17:08:18.057Z,17.52
2019-05-07T17:10:49.372Z,19.23
2019-05-07T17:13:20.991Z,19.45
2019-05-07T17:15:59.414Z,18.27
2019-05-07T17:18:33.432Z,19.37
2019-05-07T17:21:04.881Z,18.77
2019-05-07T17:23:44.034Z,20.12
2019-05-07T17:26:11.721Z,19.48
2019-05-07T17:28:43.373Z,20.55
2019-05-07T17:31:14.714Z,19.57
2019-05-07T17:33:46.408Z,18.82
2019-05-07T17:36:18.135Z,18.98
2019-05-07T17:38:51.855Z,18.05
2019-05-07T17:41:27.390Z,19.07
2019-05-07T17:43:59.029Z,16.93
2019-05-07T17:46:32.441Z,18.17
2019-05-07T17:49:05.220Z,21.33
2019-05-07T17:51:44.153Z,17.85
2019-05-07T17:54:15.970Z,17.52
2019-05-07T17:56:52.756Z,17.12
2019-05-07T17:59:23.714Z,19.05
2019-05-07T18:02:21.883Z,17.70
2019-05-07T18:04:54.711Z,17.15
2019-05-07T18:07:28.531Z,16.20
2019-05-07T18:10:02.253Z,16.60
2019-05-07T18:12:34.029Z,16.75
2019-05-07T18:15:05.755Z,16.42
2019-05-07T18:17:51.491Z,16.37
2019-05-07T18:20:22.992Z,17.50
2019-05-07T18:22:54.372Z,16.40
2019-05-07T18:25:25.642Z,16.80
2019-05-07T18:27:57.041Z,16.90
2019-05-07T18:30:28.368Z,17.07
2019-05-07T18:33:17.403Z,15.38
2019-05-07T18:35:49.793Z,15.65
2019-05-07T18:38:22.364Z,14.45
2019-05-07T18:40:55.484Z,14.55
2019-05-07T18:43:26.972Z,15.08
2019-05-07T18:45:58.635Z,14.93
2019-05-07T18:48:30.285Z,14.45
2019-05-07T18:51:02.686Z,13.62
2019-05-07T18:53:34.234Z,15.30
2019-05-07T18:56:05.816Z,14.63
2019-05-07T18:58:37.242Z,21.12
2019-05-07T19:01:11.494Z,25.08
2019-05-07T19:03:42.867Z,16.95
2019-05-07T19:06:14.542Z,13.78
2019-05-07T19:08:47.026Z,12.98
2019-05-07T19:11:18.734Z,12.73
2019-05-07T19:13:52.308Z,13.98
2019-05-07T19:16:23.666Z,12.78
2019-05-07T19:18:55.123Z,14.25
2019-05-07T19:21:27.244Z,13.03
2019-05-07T19:23:58.751Z,13.85
2019-05-07T19:26:30.433Z,13.08
2019-05-07T19:29:02.565Z,13.22
2019-05-07T19:31:34.189Z,12.95
2019-05-07T19:34:05.633Z,14.15
2019-05-07T19:36:37.398Z,12.95
2019-05-07T19:39:09.133Z,13.48
2019-05-07T19:41:43.015Z,13.95
2019-05-07T19:44:14.718Z,12.53
2019-05-07T19:46:46.029Z,12.53
2019-05-07T19:49:17.468Z,12.55
2019-05-07T19:51:48.953Z,12.63
2019-05-07T19:54:20.176Z,12.95
2019-05-07T19:56:52.031Z,12.00
2019-05-07T19:59:23.181Z,14.07
2019-05-07T20:01:58.142Z,12.63
2019-05-07T20:04:32.107Z,12.50
2019-05-07T20:07:04.913Z,12.45
2019-05-07T20:09:37.848Z,13.00
2019-05-07T20:12:09.494Z,12.35
2019-05-07T20:14:42.215Z,12.47
2019-05-07T20:17:13.841Z,12.00
2019-05-07T20:19:45.199Z,10.88
2019-05-07T20:22:16.588Z,10.95
2019-05-07T20:24:48.200Z,12.58
2019-05-07T20:27:19.866Z,11.20
2019-05-07T20:29:52.248Z,13.30
2019-05-07T20:32:24.830Z,11.20
2019-05-07T20:34:56.352Z,11.93
2019-05-07T20:37:27.756Z,11.60
2019-05-07T20:39:59.548Z,13.88
2019-05-07T20:42:32.442Z,10.85
2019-05-07T20:45:04.817Z,11.08
2019-05-07T20:47:36.510Z,11.78
2019-05-07T20:50:08.841Z,9.50
2019-05-07T20:52:41.863Z,11.05
2019-05-07T20:55:31.503Z,9.90
2019-05-07T20:58:03.034Z,10.72
2019-05-07T21:00:34.594Z,10.63
2019-05-07T21:03:23.368Z,9.48
2019-05-07T21:05:54.339Z,11.18
2019-05-07T21:08:25.809Z,10.95
2019-05-07T21:10:57.100Z,10.88
2019-05-07T21:13:33.975Z,10.88
2019-05-07T21:16:03.280Z,10.63
2019-05-07T21:18:35.083Z,10.78
2019-05-07T21:21:06.521Z,10.72
2019-05-07T21:23:37.940Z,10.63
2019-05-07T21:26:09.168Z,10.63
2019-05-07T21:28:40.383Z,10.40
2019-05-07T21:31:13.506Z,11.18
2019-05-07T21:33:44.804Z,11.38
2019-05-07T21:36:16.309Z,10.48
2019-05-07T21:38:47.774Z,10.43
2019-05-07T21:41:19.027Z,9.85
2019-05-07T21:43:52.611Z,10.58
2019-05-07T21:46:23.646Z,10.78
2019-05-07T21:48:55.314Z,10.60
2019-05-07T21:51:26.650Z,11.30
2019-05-07T21:54:23.668Z,10.28
2019-05-07T21:57:06.248Z,11.20
2019-05-07T21:59:38.124Z,11.48
2019-05-07T22:02:14.985Z,11.05
2019-05-07T22:04:46.356Z,12.58
2019-05-07T22:07:17.809Z,11.60
2019-05-07T22:09:49.536Z,11.97
2019-05-07T22:12:22.623Z,12.50
2019-05-07T22:14:54.319Z,11.55
2019-05-07T22:17:25.834Z,11.97
2019-05-07T22:19:57.554Z,10.88
2019-05-07T22:22:28.782Z,11.30
2019-05-07T22:25:04.948Z,11.45
2019-05-07T22:27:35.383Z,11.57
2019-05-07T22:30:08.913Z,11.33
2019-05-07T22:32:54.886Z,11.30
2019-05-07T22:35:30.257Z,11.00
2019-05-07T22:38:19.498Z,11.53
2019-05-07T22:40:51.189Z,12.20
2019-05-07T22:43:22.733Z,11.05
2019-05-07T22:45:55.281Z,11.95
2019-05-07T22:48:26.928Z,12.80
2019-05-07T22:50:58.519Z,10.85
2019-05-07T22:53:30.027Z,11.33
2019-05-07T22:56:03.145Z,12.25
2019-05-07T22:58:38.787Z,11.33
2019-05-07T23:01:13.085Z,11.08
2019-05-07T23:03:44.804Z,11.28
2019-05-07T23:06:16.293Z,11.73
2019-05-07T23:08:47.918Z,11.18
2019-05-07T23:11:19.605Z,11.38
2019-05-07T23:13:52.425Z,11.10
2019-05-07T23:16:24.462Z,12.15
2019-05-07T23:18:55.724Z,10.93
2019-05-07T23:21:27.101Z,11.38
2019-05-07T23:23:58.576Z,10.48
2019-05-07T23:26:32.266Z,10.85
2019-05-07T23:29:02.840Z,10.68
2019-05-07T23:31:35.478Z,10.98
2019-05-07T23:34:07.010Z,10.75
2019-05-07T23:36:38.622Z,10.98
2019-05-07T23:39:12.533Z,11.85
2019-05-07T23:41:52.582Z,12.13
2019-05-07T23:44:24.522Z,11.08
2019-05-07T23:46:56.058Z,11.80
2019-05-07T23:49:27.658Z,11.78
2019-05-07T23:51:59.335Z,11.90
2019-05-07T23:54:31.934Z,11.38
2019-05-07T23:57:08.847Z,11.85
2019-05-07T23:59:36.690Z,12.28
